Pagrindinis puslapis
METAR-TAF:

METAR-TAF

Oro uostai :

Zonguldakas, Turkija

platuma: 41-27N, ilguma: 031-48E, Aukštis: 136 m

METAR: trūkstamas

Laikas: 08:23 (05:23 UTC)

Prognozė

Ataskaita buvo paskelbta 3 valandos ir 43 minutes, ne 01:40 UTC
Prognozė galioja nuo 29 metu 03 UTC su 29 metu 12 UTC
Vėjas 2 kt nuo kintamojo kryptimis
Matomumas 10 km arba daugiau
Išsisklaidę debesys ne aukštis 3500 ft
Su prošvaistėmis ne aukštis 9000 ft
Laikinai
nuo 29 metu 03 UTC su 29 metu 07 UTC
Su prošvaistėmis ne aukštis 3000 ft
Su prošvaistėmis ne aukštis 8000 ft
lietus

TAF: LTAS 290140Z 2903/2912 VRB02KT 9999 SCT035 BKN090 TEMPO 2903/2907 -SHRA BKN030 BKN080

Orai ataskaitas ir orų prognozės (METAR, TAF).

turimą stotys yra geltonos ir raudonos taškus žemėlapyje.

Perkelti pele per norėdami pamatyti stoties vardą.

Tada spustelėkite, norėdami matyti oro stebėjimo ir prognozės.

Norėdami pakeisti žemėlapį: spustelėkite ant žalios mygtukų su juodo kryžiaus žemyn,; žalią mygtuką su brūkšneliu, jei norite nutolinti; arba žalių rodyklių gretimoms žemėlapius.


METAR-TAF: